createdAt,value
2019-05-13T00:00:35.791Z,1027.87
2019-05-13T00:01:16.124Z,1027.9
2019-05-13T00:01:59.229Z,1027.9
2019-05-13T00:02:43.595Z,1027.93
2019-05-13T00:03:24.003Z,1027.95
2019-05-13T00:04:06.665Z,1027.96
2019-05-13T00:04:47.030Z,1027.98
2019-05-13T00:05:27.370Z,1027.98
2019-05-13T00:06:07.795Z,1027.94
2019-05-13T00:06:53.371Z,1027.95
2019-05-13T00:07:30.907Z,1027.96
2019-05-13T00:08:54.191Z,1027.99
2019-05-13T00:09:34.696Z,1027.94
2019-05-13T00:10:19.732Z,1027.96
2019-05-13T00:11:01.057Z,1027.98
2019-05-13T00:11:43.610Z,1027.96
2019-05-13T00:12:23.855Z,1027.99
2019-05-13T00:13:04.308Z,1028.01
2019-05-13T00:13:44.272Z,1027.95
2019-05-13T00:14:24.929Z,1027.96
2019-05-13T00:15:05.274Z,1027.99
2019-05-13T00:17:10.082Z,1027.91
2019-05-13T00:17:56.580Z,1027.92
2019-05-13T00:18:47.184Z,1027.9
2019-05-13T00:19:25.672Z,1027.91
2019-05-13T00:20:05.943Z,1027.88
2019-05-13T00:20:46.330Z,1027.88
2019-05-13T00:21:26.877Z,1027.85
2019-05-13T00:22:07.083Z,1027.87
2019-05-13T00:22:48.128Z,1027.9
2019-05-13T00:23:28.646Z,1027.89
2019-05-13T00:24:08.929Z,1027.9
2019-05-13T00:24:49.907Z,1027.91
2019-05-13T00:25:30.311Z,1027.89
2019-05-13T00:26:10.703Z,1027.92
2019-05-13T00:26:53.176Z,1027.91
2019-05-13T00:27:33.811Z,1027.9
2019-05-13T00:28:14.387Z,1027.91
2019-05-13T00:28:53.542Z,1027.87
2019-05-13T00:29:34.159Z,1027.88
2019-05-13T00:30:14.771Z,1027.87
2019-05-13T00:30:55.720Z,1027.9
2019-05-13T00:31:46.685Z,1027.89
2019-05-13T00:32:28.768Z,1027.89
2019-05-13T00:33:09.117Z,1027.9
2019-05-13T00:33:53.217Z,1027.94
2019-05-13T00:34:35.353Z,1027.95
2019-05-13T00:35:16.005Z,1027.93
2019-05-13T00:35:57.299Z,1027.96
2019-05-13T00:36:37.672Z,1027.94
2019-05-13T00:37:18.727Z,1027.93
2019-05-13T00:38:03.732Z,1027.94
2019-05-13T00:38:43.983Z,1027.94
2019-05-13T00:39:24.547Z,1027.9
2019-05-13T00:40:04.132Z,1027.91
2019-05-13T00:40:46.182Z,1027.9
2019-05-13T00:41:27.187Z,1027.85
2019-05-13T00:42:14.136Z,1027.91
2019-05-13T00:42:55.042Z,1027.86
2019-05-13T00:43:35.412Z,1027.89
2019-05-13T00:44:15.808Z,1027.92
2019-05-13T00:44:56.185Z,1027.92
2019-05-13T00:45:36.511Z,1027.91
2019-05-13T00:46:18.463Z,1027.91
2019-05-13T00:46:59.290Z,1027.87
2019-05-13T00:47:39.778Z,1027.9
2019-05-13T00:48:20.092Z,1027.88
2019-05-13T00:49:00.466Z,1027.86
2019-05-13T00:55:19.360Z,1027.88
2019-05-13T01:01:13.704Z,1027.78
2019-05-13T01:02:13.801Z,1027.78
2019-05-13T01:03:09.714Z,1027.78
2019-05-13T01:14:16.910Z,1027.76
2019-05-13T01:14:57.862Z,1027.79
2019-05-13T01:15:38.263Z,1027.81
2019-05-13T01:16:18.668Z,1027.83
2019-05-13T01:16:59.228Z,1027.8
2019-05-13T01:17:41.668Z,1027.82
2019-05-13T01:18:27.218Z,1027.83
2019-05-13T01:19:07.661Z,1027.86
2019-05-13T01:19:49.853Z,1027.9
2019-05-13T01:20:30.264Z,1027.83
2019-05-13T01:21:51.083Z,1027.83
2019-05-13T01:22:31.391Z,1027.88
2019-05-13T01:23:13.868Z,1027.86
2019-05-13T01:23:54.194Z,1027.85
2019-05-13T01:24:35.578Z,1027.82
2019-05-13T01:25:16.028Z,1027.81
2019-05-13T01:25:56.420Z,1027.83
2019-05-13T01:26:36.809Z,1027.83
2019-05-13T01:27:18.837Z,1027.82
2019-05-13T01:27:59.169Z,1027.83
2019-05-13T01:28:40.470Z,1027.86
2019-05-13T01:29:20.743Z,1027.86
2019-05-13T01:30:01.076Z,1027.89
2019-05-13T01:30:43.615Z,1027.82
2019-05-13T01:31:23.792Z,1027.84
2019-05-13T01:32:04.453Z,1027.83
2019-05-13T01:32:49.196Z,1027.83
2019-05-13T01:33:29.567Z,1027.82
2019-05-13T01:34:14.060Z,1027.81
2019-05-13T01:34:53.780Z,1027.82
2019-05-13T01:35:34.154Z,1027.81
2019-05-13T01:36:13.539Z,1027.83
2019-05-13T01:36:57.615Z,1027.83
2019-05-13T01:37:42.422Z,1027.83
2019-05-13T01:38:18.448Z,1027.84
2019-05-13T01:38:58.859Z,1027.84
2019-05-13T01:39:40.229Z,1027.83
2019-05-13T01:40:20.573Z,1027.83
2019-05-13T01:41:00.943Z,1027.83
2019-05-13T01:41:43.788Z,1027.84
2019-05-13T01:42:24.285Z,1027.8
2019-05-13T01:43:04.670Z,1027.82
2019-05-13T01:44:25.557Z,1027.8
2019-05-13T01:45:05.851Z,1027.81
2019-05-13T01:45:53.642Z,1027.82
2019-05-13T01:46:34.614Z,1027.83
2019-05-13T01:47:13.519Z,1027.83
2019-05-13T01:47:54.526Z,1027.85
2019-05-13T01:48:34.832Z,1027.86
2019-05-13T01:49:18.195Z,1027.83
2019-05-13T01:49:55.657Z,1027.83
2019-05-13T01:50:44.827Z,1027.8
2019-05-13T01:51:27.610Z,1027.89
2019-05-13T01:52:09.612Z,1027.84
2019-05-13T01:52:53.264Z,1027.89
2019-05-13T01:53:33.567Z,1027.87
2019-05-13T01:54:14.174Z,1027.92
2019-05-13T01:54:54.310Z,1027.88
2019-05-13T02:07:56.735Z,1028.01
2019-05-13T02:15:25.582Z,1028.12
2019-05-13T02:16:15.617Z,1028.05
2019-05-13T02:17:04.623Z,1028.11
2019-05-13T02:17:57.540Z,1028.17
2019-05-13T02:20:15.202Z,1028.17
2019-05-13T02:21:55.164Z,1028.27
2019-05-13T02:22:45.888Z,1028.31
2019-05-13T02:23:38.485Z,1028.32
2019-05-13T02:39:52.899Z,1028.29
2019-05-13T02:43:52.533Z,1028.26
2019-05-13T02:44:43.856Z,1028.29
2019-05-13T02:49:12.712Z,1028.31
2019-05-13T02:52:47.997Z,1028.39
2019-05-13T03:07:53.306Z,1028.21
2019-05-13T03:11:57.391Z,1028.33
2019-05-13T03:17:12.985Z,1028.36
2019-05-13T03:19:45.693Z,1028.37
2019-05-13T03:23:26.478Z,1028.47
2019-05-13T03:35:45.219Z,1028.44
2019-05-13T03:36:36.446Z,1028.47
2019-05-13T03:49:38.012Z,1028.62
2019-05-13T03:55:17.811Z,1028.62
2019-05-13T03:56:07.064Z,1028.6
2019-05-13T03:56:57.226Z,1028.61
2019-05-13T03:57:46.275Z,1028.59
2019-05-13T03:58:37.332Z,1028.65
2019-05-13T03:59:33.187Z,1028.64
2019-05-13T04:17:34.074Z,1028.8
2019-05-13T04:21:42.890Z,1028.9
2019-05-13T05:14:28.822Z,1029.12
2019-05-13T05:18:02.778Z,1029.19
2019-05-13T05:18:43.769Z,1029.17
2019-05-13T05:19:32.014Z,1029.21
2019-05-13T05:20:12.408Z,1029.21
2019-05-13T05:20:52.078Z,1029.24
2019-05-13T05:21:32.533Z,1029.18
2019-05-13T05:22:13.498Z,1029.21
2019-05-13T05:23:05.296Z,1029.19
2019-05-13T05:23:45.695Z,1029.22
2019-05-13T05:27:15.324Z,1029.19
2019-05-13T05:27:58.447Z,1029.24
2019-05-13T05:28:40.828Z,1029.22
2019-05-13T05:29:22.128Z,1029.24
2019-05-13T05:30:02.392Z,1029.24
2019-05-13T05:30:44.763Z,1029.24
2019-05-13T05:31:33.799Z,1029.26
2019-05-13T05:32:23.836Z,1029.26
2019-05-13T05:33:04.258Z,1029.31
2019-05-13T05:33:46.575Z,1029.26
2019-05-13T05:34:31.693Z,1029.29
2019-05-13T05:35:11.763Z,1029.25
2019-05-13T05:35:53.653Z,1029.26
2019-05-13T05:36:36.036Z,1029.27
2019-05-13T05:37:22.270Z,1029.32
2019-05-13T05:38:03.240Z,1029.32
2019-05-13T05:38:43.663Z,1029.31
2019-05-13T05:39:24.107Z,1029.28
2019-05-13T05:43:22.244Z,1029.36
2019-05-13T05:44:05.236Z,1029.41
2019-05-13T06:12:21.126Z,1029.48
2019-05-13T06:13:01.793Z,1029.45
2019-05-13T06:13:42.015Z,1029.43
2019-05-13T06:14:21.884Z,1029.42
2019-05-13T06:15:02.581Z,1029.4
2019-05-13T06:15:43.834Z,1029.37
2019-05-13T06:16:26.384Z,1029.42
2019-05-13T06:17:07.185Z,1029.43
2019-05-13T06:17:48.765Z,1029.4
2019-05-13T06:18:32.493Z,1029.44
2019-05-13T06:19:17.942Z,1029.4
2019-05-13T06:19:58.383Z,1029.43
2019-05-13T06:22:23.023Z,1029.42
2019-05-13T06:23:05.688Z,1029.42
2019-05-13T06:23:46.344Z,1029.42
2019-05-13T06:24:30.820Z,1029.39
2019-05-13T06:25:13.938Z,1029.42
2019-05-13T06:25:52.506Z,1029.42
2019-05-13T06:26:31.935Z,1029.4
2019-05-13T06:30:34.473Z,1029.42
2019-05-13T06:31:21.520Z,1029.43
2019-05-13T06:32:14.790Z,1029.43
2019-05-13T06:32:41.817Z,1029.43
2019-05-13T06:33:21.655Z,1029.45
2019-05-13T06:34:02.973Z,1029.45
2019-05-13T06:34:43.935Z,1029.43
2019-05-13T06:35:26.192Z,1029.47
2019-05-13T06:36:07.643Z,1029.47
2019-05-13T06:36:52.048Z,1029.47
2019-05-13T06:37:32.218Z,1029.5
2019-05-13T06:38:33.663Z,1029.45
2019-05-13T06:39:13.721Z,1029.45
2019-05-13T06:39:54.083Z,1029.45
2019-05-13T06:40:35.651Z,1029.47
2019-05-13T06:41:16.808Z,1029.5
2019-05-13T06:41:58.087Z,1029.52
2019-05-13T06:42:38.575Z,1029.52
2019-05-13T06:43:20.964Z,1029.49
2019-05-13T06:44:02.080Z,1029.5
2019-05-13T06:44:42.771Z,1029.52
2019-05-13T06:48:37.551Z,1029.53
2019-05-13T06:49:21.475Z,1029.54
2019-05-13T06:50:02.965Z,1029.51
2019-05-13T06:50:43.736Z,1029.54
2019-05-13T06:51:26.981Z,1029.55
2019-05-13T06:52:11.949Z,1029.52
2019-05-13T06:52:52.280Z,1029.52
2019-05-13T06:53:36.788Z,1029.51
2019-05-13T07:09:31.920Z,1029.51
2019-05-13T07:10:09.163Z,1029.52
2019-05-13T07:10:51.722Z,1029.52
2019-05-13T07:11:34.867Z,1029.51
2019-05-13T07:12:17.205Z,1029.47
2019-05-13T07:12:58.630Z,1029.49
2019-05-13T07:13:42.232Z,1029.53
2019-05-13T07:14:21.919Z,1029.55
2019-05-13T07:15:02.638Z,1029.53
2019-05-13T07:15:42.831Z,1029.5
2019-05-13T07:16:25.303Z,1029.53
2019-05-13T07:21:24.042Z,1029.51
2019-05-13T07:22:04.952Z,1029.53
2019-05-13T07:22:46.325Z,1029.52
2019-05-13T07:23:31.741Z,1029.51
2019-05-13T07:24:12.585Z,1029.53
2019-05-13T07:24:53.222Z,1029.56
2019-05-13T07:25:41.959Z,1029.6
2019-05-13T07:27:05.970Z,1029.59
2019-05-13T07:27:51.486Z,1029.6
2019-05-13T07:28:32.230Z,1029.6
2019-05-13T07:29:12.891Z,1029.58
2019-05-13T07:29:58.220Z,1029.59
2019-05-13T07:30:38.805Z,1029.56
2019-05-13T07:31:21.747Z,1029.63
2019-05-13T07:32:07.002Z,1029.62
2019-05-13T07:32:52.186Z,1029.58
2019-05-13T07:33:48.036Z,1029.6
2019-05-13T07:34:32.797Z,1029.66
2019-05-13T07:35:58.000Z,1029.64
2019-05-13T07:36:33.211Z,1029.64
2019-05-13T07:37:14.836Z,1029.6
2019-05-13T07:37:56.204Z,1029.63
2019-05-13T07:38:46.808Z,1029.62
2019-05-13T07:39:37.358Z,1029.62
2019-05-13T07:40:21.962Z,1029.63
2019-05-13T07:41:06.055Z,1029.63
2019-05-13T07:41:48.129Z,1029.62
2019-05-13T07:42:31.420Z,1029.59
2019-05-13T07:43:12.525Z,1029.54
2019-05-13T07:43:53.794Z,1029.63
2019-05-13T07:44:36.489Z,1029.53
2019-05-13T07:45:21.267Z,1029.49
2019-05-13T07:46:02.189Z,1029.57
2019-05-13T07:46:52.232Z,1029.59
2019-05-13T07:47:35.869Z,1029.57
2019-05-13T07:48:20.849Z,1029.57
2019-05-13T07:49:01.812Z,1029.58
2019-05-13T07:49:47.001Z,1029.58
2019-05-13T07:50:29.223Z,1029.59
2019-05-13T07:51:12.499Z,1029.58
2019-05-13T07:51:53.983Z,1029.55
2019-05-13T07:52:35.946Z,1029.6
2019-05-13T07:53:18.870Z,1029.53
2019-05-13T07:53:57.096Z,1029.56
2019-05-13T07:54:41.938Z,1029.58
2019-05-13T07:55:23.468Z,1029.58
2019-05-13T07:56:06.131Z,1029.6
2019-05-13T07:56:47.438Z,1029.58
2019-05-13T07:57:31.827Z,1029.58
2019-05-13T07:58:12.065Z,1029.63
2019-05-13T07:58:54.344Z,1029.63
2019-05-13T07:59:37.496Z,1029.62
2019-05-13T08:00:17.817Z,1029.66
2019-05-13T08:01:02.365Z,1029.63
2019-05-13T08:01:41.891Z,1029.66
2019-05-13T08:02:23.671Z,1029.66
2019-05-13T08:03:05.164Z,1029.62
2019-05-13T08:03:48.321Z,1029.61
2019-05-13T08:04:28.793Z,1029.64
2019-05-13T08:08:28.818Z,1029.56
2019-05-13T08:09:12.748Z,1029.56
2019-05-13T08:09:55.571Z,1029.6
2019-05-13T08:10:34.542Z,1029.56
2019-05-13T08:11:16.025Z,1029.55
2019-05-13T08:12:09.021Z,1029.55
2019-05-13T08:12:41.270Z,1029.53
2019-05-13T08:13:23.162Z,1029.5
2019-05-13T08:14:02.987Z,1029.53
2019-05-13T08:14:46.790Z,1029.49
2019-05-13T08:15:31.633Z,1029.5
2019-05-13T08:16:16.500Z,1029.49
2019-05-13T08:16:58.270Z,1029.49
2019-05-13T08:17:44.645Z,1029.49
2019-05-13T08:18:23.680Z,1029.43
2019-05-13T08:19:07.259Z,1029.46
2019-05-13T08:19:48.282Z,1029.42
2019-05-13T08:20:29.232Z,1029.42
2019-05-13T08:21:12.332Z,1029.46
2019-05-13T08:21:51.560Z,1029.42
2019-05-13T08:22:32.663Z,1029.4
2019-05-13T08:23:13.217Z,1029.44
2019-05-13T08:23:53.633Z,1029.43
2019-05-13T08:24:34.065Z,1029.47
2019-05-13T08:25:14.492Z,1029.46
2019-05-13T08:25:55.466Z,1029.44
2019-05-13T08:26:44.743Z,1029.43
2019-05-13T08:27:21.498Z,1029.43
2019-05-13T08:28:02.146Z,1029.47
2019-05-13T08:28:56.859Z,1029.46
2019-05-13T08:29:24.725Z,1029.46
2019-05-13T08:30:05.320Z,1029.48
2019-05-13T08:30:51.617Z,1029.49
2019-05-13T08:31:32.212Z,1029.56
2019-05-13T08:32:12.007Z,1029.51
2019-05-13T08:32:55.032Z,1029.52
2019-05-13T08:33:39.431Z,1029.53
2019-05-13T08:34:22.540Z,1029.52
2019-05-13T08:35:08.808Z,1029.48
2019-05-13T08:36:26.692Z,1029.53
2019-05-13T08:37:08.583Z,1029.51
2019-05-13T08:37:51.763Z,1029.51
2019-05-13T08:38:32.777Z,1029.49
2019-05-13T08:39:17.062Z,1029.5
2019-05-13T08:39:57.611Z,1029.49
2019-05-13T08:40:39.303Z,1029.45
2019-05-13T08:45:08.790Z,1029.46
2019-05-13T08:45:51.086Z,1029.45
2019-05-13T08:46:31.978Z,1029.42
2019-05-13T08:47:12.004Z,1029.45
2019-05-13T08:47:54.900Z,1029.44
2019-05-13T08:48:37.281Z,1029.44
2019-05-13T08:49:19.149Z,1029.46
2019-05-13T08:50:03.396Z,1029.5
2019-05-13T08:50:42.084Z,1029.49
2019-05-13T08:51:22.304Z,1029.48
2019-05-13T08:52:02.858Z,1029.49
2019-05-13T08:52:45.129Z,1029.48
2019-05-13T08:53:28.791Z,1029.47
2019-05-13T08:54:11.427Z,1029.51
2019-05-13T08:54:52.361Z,1029.5
2019-05-13T08:55:32.194Z,1029.48
2019-05-13T08:56:15.505Z,1029.46
2019-05-13T08:56:55.883Z,1029.46
2019-05-13T08:57:36.458Z,1029.48
2019-05-13T08:59:56.253Z,1029.44
2019-05-13T09:00:36.074Z,1029.43
2019-05-13T09:01:19.399Z,1029.42
2019-05-13T09:02:02.471Z,1029.43
2019-05-13T09:02:41.980Z,1029.45
2019-05-13T09:03:21.489Z,1029.41
2019-05-13T09:04:03.885Z,1029.4
2019-05-13T09:04:45.412Z,1029.42
2019-05-13T09:05:25.851Z,1029.46
2019-05-13T09:06:06.359Z,1029.45
2019-05-13T09:06:47.697Z,1029.48
2019-05-13T09:07:31.775Z,1029.2
2019-05-13T09:08:11.488Z,1029.44
2019-05-13T09:08:54.131Z,1029.45
2019-05-13T09:09:36.715Z,1029.41
2019-05-13T09:10:17.369Z,1029.43
2019-05-13T09:11:01.267Z,1029.43
2019-05-13T09:11:43.986Z,1029.43
2019-05-13T09:12:31.913Z,1029.43
2019-05-13T09:13:11.843Z,1029.39
2019-05-13T09:13:51.860Z,1029.41
2019-05-13T09:14:32.729Z,1029.34
2019-05-13T09:15:12.817Z,1029.4
2019-05-13T09:15:53.742Z,1029.38
2019-05-13T09:16:34.307Z,1029.38
2019-05-13T09:17:15.810Z,1029.39
2019-05-13T09:17:56.019Z,1029.35
2019-05-13T09:18:38.155Z,1029.37
2019-05-13T09:19:21.526Z,1029.37
2019-05-13T09:20:03.135Z,1029.37
2019-05-13T09:20:43.977Z,1029.36
2019-05-13T09:21:24.377Z,1029.4
2019-05-13T09:22:04.733Z,1029.38
2019-05-13T09:23:25.743Z,1029.33
2019-05-13T09:24:20.596Z,1029.31
2019-05-13T09:24:46.650Z,1029.29
2019-05-13T09:26:11.819Z,1029.29
2019-05-13T09:26:52.581Z,1029.32
2019-05-13T09:27:33.638Z,1029.32
2019-05-13T09:28:15.160Z,1029.29
2019-05-13T09:28:55.283Z,1029.31
2019-05-13T09:29:38.656Z,1029.29
2019-05-13T09:30:22.238Z,1029.34
2019-05-13T09:31:01.953Z,1029.29
2019-05-13T09:31:41.778Z,1029.3
2019-05-13T09:32:22.114Z,1029.32
2019-05-13T09:33:04.128Z,1029.32
2019-05-13T09:33:44.625Z,1029.36
2019-05-13T09:34:24.988Z,1029.33
2019-05-13T09:35:05.437Z,1029.33
2019-05-13T09:35:51.005Z,1029.34
2019-05-13T09:36:33.582Z,1029.31
2019-05-13T09:37:54.088Z,1029.29
2019-05-13T09:38:36.200Z,1029.32
2019-05-13T09:39:16.809Z,1029.35
2019-05-13T09:39:57.144Z,1029.39
2019-05-13T09:40:41.998Z,1029.42
2019-05-13T09:41:21.424Z,1029.37
2019-05-13T09:42:02.822Z,1029.35
2019-05-13T09:42:48.766Z,1029.35
2019-05-13T09:44:08.677Z,1029.32
2019-05-13T09:44:52.452Z,1029.27
2019-05-13T09:45:32.151Z,1029.25
2019-05-13T09:46:12.351Z,1029.3
2019-05-13T09:46:55.533Z,1029.28
2019-05-13T09:47:35.790Z,1029.31
2019-05-13T09:48:16.333Z,1029.27
2019-05-13T09:49:11.719Z,1029.23
2019-05-13T09:51:32.318Z,1029.2
2019-05-13T09:52:12.209Z,1029.22
2019-05-13T09:52:52.639Z,1029.21
2019-05-13T09:53:36.848Z,1029.26
2019-05-13T09:54:17.337Z,1029.28
2019-05-13T09:55:02.952Z,1029.28
2019-05-13T09:55:43.789Z,1029.27
2019-05-13T09:56:26.073Z,1029.29
2019-05-13T09:57:06.886Z,1029.27
2019-05-13T09:57:51.862Z,1029.26
2019-05-13T09:58:32.901Z,1029.27
2019-05-13T09:59:14.858Z,1029.27
2019-05-13T09:59:56.024Z,1029.21
2019-05-13T10:00:36.376Z,1029.24
2019-05-13T10:01:22.524Z,1029.22
2019-05-13T10:02:02.843Z,1029.27
2019-05-13T10:02:45.465Z,1029.25
2019-05-13T10:03:29.493Z,1029.27
2019-05-13T10:04:07.520Z,1029.28
2019-05-13T10:04:51.611Z,1029.29
2019-05-13T10:05:34.503Z,1029.24
2019-05-13T10:06:15.169Z,1029.24
2019-05-13T10:06:57.294Z,1029.23
2019-05-13T10:07:38.242Z,1029.24
2019-05-13T10:08:23.366Z,1029.25
2019-05-13T10:09:07.341Z,1029.23
2019-05-13T10:09:48.425Z,1029.3
2019-05-13T10:10:28.653Z,1029.22
2019-05-13T10:11:11.980Z,1029.24
2019-05-13T10:13:31.645Z,1029.19
2019-05-13T10:14:13.894Z,1029.23
2019-05-13T10:15:01.704Z,1029.18
2019-05-13T10:15:41.958Z,1029.23
2019-05-13T10:16:21.910Z,1029.22
2019-05-13T10:17:05.904Z,1029.21
2019-05-13T10:17:43.098Z,1029.19
2019-05-13T10:18:23.269Z,1029.21
2019-05-13T10:19:05.849Z,1029.22
2019-05-13T10:19:47.037Z,1029.18
2019-05-13T10:20:27.659Z,1029.18
2019-05-13T10:21:08.264Z,1029.21
2019-05-13T10:21:52.340Z,1029.17
2019-05-13T10:22:31.902Z,1029.19
2019-05-13T10:23:12.495Z,1029.19
2019-05-13T10:23:58.352Z,1029.1
2019-05-13T10:24:37.625Z,1029.14
2019-05-13T10:25:22.397Z,1029.1
2019-05-13T10:26:04.252Z,1029.13
2019-05-13T10:26:44.862Z,1029.13
2019-05-13T11:06:12.526Z,1028.74
2019-05-13T11:06:52.845Z,1028.79
2019-05-13T11:08:23.712Z,1028.77
2019-05-13T11:09:06.231Z,1028.76
2019-05-13T11:09:47.227Z,1028.71
2019-05-13T11:10:27.953Z,1028.73
2019-05-13T11:23:07.794Z,1028.7
2019-05-13T11:23:48.351Z,1028.68
2019-05-13T11:24:31.981Z,1028.67
2019-05-13T11:25:12.256Z,1028.62
2019-05-13T11:25:52.230Z,1028.65
2019-05-13T11:26:35.781Z,1028.61
2019-05-13T11:27:12.396Z,1028.59
2019-05-13T11:27:57.658Z,1028.59
2019-05-13T11:28:34.422Z,1028.59
2019-05-13T11:29:14.990Z,1028.6
2019-05-13T11:29:55.349Z,1028.6
2019-05-13T11:30:36.278Z,1028.6
2019-05-13T11:31:22.340Z,1028.63
2019-05-13T11:32:03.678Z,1028.57
2019-05-13T11:32:44.054Z,1028.6
2019-05-13T11:33:24.459Z,1028.6
2019-05-13T11:34:06.878Z,1028.61
2019-05-13T11:34:47.508Z,1028.49
2019-05-13T11:35:31.921Z,1028.6
2019-05-13T11:36:14.096Z,1028.62
2019-05-13T11:36:53.444Z,1028.53
2019-05-13T11:37:34.727Z,1028.55
2019-05-13T11:38:15.209Z,1028.56
2019-05-13T11:38:56.546Z,1028.53
2019-05-13T11:39:36.980Z,1028.5
2019-05-13T11:40:21.796Z,1028.56
2019-05-13T11:41:02.765Z,1028.55
2019-05-13T11:41:43.042Z,1028.56
2019-05-13T11:42:25.047Z,1028.55
2019-05-13T11:43:07.414Z,1028.56
2019-05-13T11:44:09.015Z,1028.51
2019-05-13T11:44:31.871Z,1028.55
2019-05-13T11:45:11.661Z,1028.56
2019-05-13T11:46:35.305Z,1028.55
2019-05-13T11:47:15.818Z,1028.53
2019-05-13T11:47:58.299Z,1028.47
2019-05-13T11:48:44.014Z,1028.49
2019-05-13T11:49:27.937Z,1028.44
2019-05-13T11:50:08.451Z,1028.44
2019-05-13T11:50:53.719Z,1028.44
2019-05-13T11:51:32.665Z,1028.35
2019-05-13T11:52:14.152Z,1028.36
2019-05-13T11:52:57.785Z,1028.4
2019-05-13T11:53:41.647Z,1028.4
2019-05-13T11:54:22.259Z,1028.43
2019-05-13T11:55:03.019Z,1028.45
2019-05-13T11:55:45.461Z,1028.42
2019-05-13T11:56:26.071Z,1028.39
2019-05-13T11:57:07.850Z,1028.38
2019-05-13T11:57:48.783Z,1028.39
2019-05-13T11:58:30.073Z,1028.42
2019-05-13T11:59:52.770Z,1028.34
2019-05-13T12:00:34.465Z,1028.34
2019-05-13T12:01:15.042Z,1028.38
2019-05-13T12:01:55.491Z,1028.34
2019-05-13T12:02:35.927Z,1028.39
2019-05-13T12:03:22.970Z,1028.38
2019-05-13T12:04:07.982Z,1028.4
2019-05-13T12:04:53.414Z,1028.43
2019-05-13T12:05:32.624Z,1028.35
2019-05-13T12:06:13.621Z,1028.35
2019-05-13T12:06:54.694Z,1028.31
2019-05-13T12:07:35.710Z,1028.27
2019-05-13T12:08:22.386Z,1028.22
2019-05-13T12:09:44.101Z,1028.29
2019-05-13T12:10:27.041Z,1028.18
2019-05-13T12:11:10.367Z,1028.22
2019-05-13T12:11:52.607Z,1028.24
2019-05-13T12:12:35.968Z,1028.23
2019-05-13T12:13:16.331Z,1028.19
2019-05-13T12:13:57.405Z,1028.21
2019-05-13T12:14:56.714Z,1028.11
2019-05-13T12:15:28.650Z,1028.19
2019-05-13T12:16:03.984Z,1028.17
2019-05-13T12:16:45.995Z,1028.15
2019-05-13T12:17:28.792Z,1028.18
2019-05-13T12:18:12.574Z,1028.14
2019-05-13T12:18:53.011Z,1028.14
2019-05-13T12:19:33.092Z,1028.17
2019-05-13T12:20:13.740Z,1028.18
2019-05-13T12:20:54.430Z,1028.11
2019-05-13T12:21:43.022Z,1028.11
2019-05-13T12:22:22.882Z,1028.14
2019-05-13T12:23:03.370Z,1028.15
2019-05-13T12:23:43.000Z,1028.03
2019-05-13T12:24:24.607Z,1028.09
2019-05-13T12:25:04.852Z,1028.06
2019-05-13T12:25:46.876Z,1028.07
2019-05-13T12:26:27.680Z,1028.08
2019-05-13T12:27:10.977Z,1028.17
2019-05-13T12:27:51.910Z,1028.15
2019-05-13T12:28:33.073Z,1028.12
2019-05-13T12:29:18.462Z,1028.13
2019-05-13T12:29:54.174Z,1028.16
2019-05-13T12:30:35.098Z,1028.18
2019-05-13T12:31:15.740Z,1028.1
2019-05-13T12:32:04.145Z,1028.07
2019-05-13T12:32:47.752Z,1028.05
2019-05-13T12:33:32.733Z,1028.04
2019-05-13T12:34:13.187Z,1028.04
2019-05-13T12:34:53.000Z,1028.06
2019-05-13T12:35:34.464Z,1028.05
2019-05-13T12:36:18.403Z,1027.99
2019-05-13T12:36:57.761Z,1028
2019-05-13T12:37:41.908Z,1028.04
2019-05-13T12:39:01.837Z,1027.96
2019-05-13T12:39:43.756Z,1027.94
2019-05-13T12:40:24.104Z,1028
2019-05-13T12:41:12.517Z,1027.94
2019-05-13T12:41:49.538Z,1027.96
2019-05-13T12:42:33.755Z,1027.93
2019-05-13T12:43:14.172Z,1027.96
2019-05-13T12:43:56.983Z,1027.97
2019-05-13T12:44:59.705Z,1027.96
2019-05-13T12:45:22.217Z,1027.93
2019-05-13T12:46:02.247Z,1027.97
2019-05-13T12:46:49.882Z,1027.97
2019-05-13T12:47:26.150Z,1027.97
2019-05-13T12:48:12.984Z,1027.96
2019-05-13T12:48:51.011Z,1027.99
2019-05-13T12:49:36.356Z,1027.98
2019-05-13T12:50:15.360Z,1027.98
2019-05-13T12:50:56.873Z,1027.9
2019-05-13T12:51:37.232Z,1027.88
2019-05-13T12:52:22.795Z,1027.96
2019-05-13T12:53:02.681Z,1027.93
2019-05-13T12:53:43.404Z,1027.98
2019-05-13T12:54:24.057Z,1027.9
2019-05-13T12:55:05.007Z,1027.85
2019-05-13T12:55:52.554Z,1027.84
2019-05-13T12:56:27.593Z,1027.82
2019-05-13T12:57:15.128Z,1027.93
2019-05-13T12:57:53.310Z,1027.93
2019-05-13T12:58:34.643Z,1027.9
2019-05-13T12:59:15.054Z,1027.94
2019-05-13T12:59:56.463Z,1027.9
2019-05-13T13:00:36.893Z,1027.85
2019-05-13T13:01:17.275Z,1027.86
2019-05-13T13:01:58.106Z,1027.86
2019-05-13T13:02:41.008Z,1027.85
2019-05-13T13:03:23.095Z,1027.82
2019-05-13T13:04:02.360Z,1027.79
2019-05-13T13:05:07.734Z,1027.81
2019-05-13T13:05:24.167Z,1027.74
2019-05-13T13:06:24.954Z,1027.76
2019-05-13T13:06:53.266Z,1027.74
2019-05-13T13:07:41.187Z,1027.77
2019-05-13T13:08:56.013Z,1027.66
2019-05-13T13:09:39.683Z,1027.65
2019-05-13T13:10:23.014Z,1027.69
2019-05-13T13:11:04.544Z,1027.65
2019-05-13T13:11:48.989Z,1027.65
2019-05-13T13:12:35.816Z,1027.63
2019-05-13T13:13:13.733Z,1027.66
2019-05-13T13:14:00.983Z,1027.67
2019-05-13T13:14:44.167Z,1027.68
2019-05-13T13:15:36.775Z,1027.65
2019-05-13T13:16:06.602Z,1027.59
2019-05-13T13:16:48.069Z,1027.64
2019-05-13T13:17:29.660Z,1027.59
2019-05-13T13:18:17.758Z,1027.59
2019-05-13T13:19:02.423Z,1027.62
2019-05-13T13:19:41.728Z,1027.6
2019-05-13T13:20:24.158Z,1027.59
2019-05-13T13:21:07.162Z,1027.55
2019-05-13T13:21:46.188Z,1027.57
2019-05-13T13:22:27.576Z,1027.59
2019-05-13T13:23:07.957Z,1027.48
2019-05-13T13:23:49.526Z,1027.53
2019-05-13T13:24:35.719Z,1027.55
2019-05-13T13:25:17.142Z,1027.54
2019-05-13T13:26:02.887Z,1027.56
2019-05-13T13:26:42.871Z,1027.6
2019-05-13T13:39:15.317Z,1027.42
2019-05-13T13:39:55.915Z,1027.45
2019-05-13T13:40:39.517Z,1027.47
2019-05-13T13:41:22.544Z,1027.5
2019-05-13T13:42:05.273Z,1027.49
2019-05-13T13:42:46.020Z,1027.45
2019-05-13T13:43:29.147Z,1027.42
2019-05-13T13:44:12.560Z,1027.38
2019-05-13T13:44:53.693Z,1027.38
2019-05-13T13:45:43.861Z,1027.41
2019-05-13T13:46:36.236Z,1027.4
2019-05-13T13:47:00.106Z,1027.36
2019-05-13T13:47:45.330Z,1027.39
2019-05-13T13:48:25.762Z,1027.4
2019-05-13T13:49:06.593Z,1027.43
2019-05-13T13:49:49.723Z,1027.43
2019-05-13T13:50:33.895Z,1027.35
2019-05-13T13:51:16.371Z,1027.4
2019-05-13T13:51:59.377Z,1027.39
2019-05-13T13:54:27.577Z,1027.41
2019-05-13T13:55:09.252Z,1027.37
2019-05-13T13:55:55.496Z,1027.36
2019-05-13T13:56:32.586Z,1027.33
2019-05-13T13:57:14.115Z,1027.29
2019-05-13T13:57:56.572Z,1027.3
2019-05-13T13:58:43.674Z,1027.3
2019-05-13T13:59:24.509Z,1027.29
2019-05-13T14:00:22.266Z,1027.29
2019-05-13T14:01:04.915Z,1027.3
2019-05-13T14:01:41.028Z,1027.24
2019-05-13T14:02:26.650Z,1027.29
2019-05-13T14:03:12.168Z,1027.33
2019-05-13T14:03:53.240Z,1027.26
2019-05-13T14:04:35.078Z,1027.3
2019-05-13T14:05:24.544Z,1027.3
2019-05-13T14:06:06.044Z,1027.26
2019-05-13T14:07:37.786Z,1027.28
2019-05-13T14:08:12.877Z,1027.31
2019-05-13T14:08:53.568Z,1027.26
2019-05-13T14:09:34.019Z,1027.2
2019-05-13T14:10:16.285Z,1027.2
2019-05-13T14:11:01.837Z,1027.18
2019-05-13T14:11:41.934Z,1027.18
2019-05-13T14:14:03.582Z,1027.24
2019-05-13T14:14:43.827Z,1027.22
2019-05-13T14:15:25.862Z,1027.21
2019-05-13T14:16:22.262Z,1027.15
2019-05-13T14:16:51.612Z,1027.19
2019-05-13T14:17:31.230Z,1027.15
2019-05-13T14:18:11.567Z,1027.15
2019-05-13T14:18:52.894Z,1027.14
2019-05-13T14:19:37.884Z,1027.14
2019-05-13T14:20:19.677Z,1027.13
2019-05-13T14:21:03.018Z,1027.06
2019-05-13T14:21:41.581Z,1027.06
2019-05-13T14:22:21.896Z,1027.04
2019-05-13T14:23:03.492Z,1027.03
2019-05-13T14:23:47.737Z,1027.07
2019-05-13T14:24:30.036Z,1027.08
2019-05-13T14:25:12.523Z,1027.01